sensor_id;sensor_type;location;lat;lon;timestamp;P1;durP1;ratioP1;P2;durP2;ratioP2
20076;SDS011;12348;42.710;23.378;2022-10-12T00:00:53;35.10;;;17.97;;
20076;SDS011;12348;42.710;23.378;2022-10-12T00:03:22;35.17;;;18.80;;
20076;SDS011;12348;42.710;23.378;2022-10-12T00:05:58;37.77;;;18.13;;
20076;SDS011;12348;42.710;23.378;2022-10-12T00:08:27;32.93;;;17.67;;
20076;SDS011;12348;42.710;23.378;2022-10-12T00:10:54;29.13;;;15.97;;
20076;SDS011;12348;42.710;23.378;2022-10-12T00:13:21;35.03;;;17.17;;
20076;SDS011;12348;42.710;23.378;2022-10-12T00:15:48;35.93;;;17.23;;
20076;SDS011;12348;42.710;23.378;2022-10-12T00:18:15;32.27;;;18.43;;
20076;SDS011;12348;42.710;23.378;2022-10-12T00:20:43;38.77;;;18.97;;
20076;SDS011;12348;42.710;23.378;2022-10-12T00:23:10;33.03;;;17.03;;
20076;SDS011;12348;42.710;23.378;2022-10-12T00:25:37;37.80;;;18.63;;
20076;SDS011;12348;42.710;23.378;2022-10-12T00:28:05;32.03;;;17.40;;
20076;SDS011;12348;42.710;23.378;2022-10-12T00:30:32;35.43;;;18.40;;
20076;SDS011;12348;42.710;23.378;2022-10-12T00:32:59;35.37;;;17.93;;
20076;SDS011;12348;42.710;23.378;2022-10-12T00:35:26;33.30;;;19.30;;
20076;SDS011;12348;42.710;23.378;2022-10-12T00:37:56;32.30;;;18.00;;
20076;SDS011;12348;42.710;23.378;2022-10-12T00:40:22;30.40;;;16.77;;
20076;SDS011;12348;42.710;23.378;2022-10-12T00:42:49;35.77;;;17.63;;
20076;SDS011;12348;42.710;23.378;2022-10-12T00:45:16;32.27;;;16.00;;
20076;SDS011;12348;42.710;23.378;2022-10-12T00:47:43;31.23;;;16.47;;
20076;SDS011;12348;42.710;23.378;2022-10-12T00:50:16;36.07;;;18.03;;
20076;SDS011;12348;42.710;23.378;2022-10-12T00:52:48;32.03;;;16.77;;
20076;SDS011;12348;42.710;23.378;2022-10-12T00:55:20;31.43;;;16.63;;
20076;SDS011;12348;42.710;23.378;2022-10-12T00:57:50;32.53;;;17.73;;
20076;SDS011;12348;42.710;23.378;2022-10-12T01:00:20;27.10;;;15.00;;
20076;SDS011;12348;42.710;23.378;2022-10-12T01:02:48;29.43;;;14.87;;
20076;SDS011;12348;42.710;23.378;2022-10-12T01:05:17;35.87;;;16.33;;
20076;SDS011;12348;42.710;23.378;2022-10-12T01:07:45;32.63;;;17.13;;
20076;SDS011;12348;42.710;23.378;2022-10-12T01:10:12;35.13;;;16.53;;
20076;SDS011;12348;42.710;23.378;2022-10-12T01:12:41;33.70;;;17.23;;
20076;SDS011;12348;42.710;23.378;2022-10-12T01:15:09;33.60;;;17.43;;
20076;SDS011;12348;42.710;23.378;2022-10-12T01:17:39;31.17;;;16.30;;
20076;SDS011;12348;42.710;23.378;2022-10-12T01:20:31;31.80;;;16.27;;
20076;SDS011;12348;42.710;23.378;2022-10-12T01:23:20;32.97;;;16.80;;
20076;SDS011;12348;42.710;23.378;2022-10-12T01:26:15;31.03;;;16.50;;
20076;SDS011;12348;42.710;23.378;2022-10-12T01:29:03;32.07;;;14.33;;
20076;SDS011;12348;42.710;23.378;2022-10-12T01:31:44;33.90;;;18.07;;
20076;SDS011;12348;42.710;23.378;2022-10-12T01:34:16;35.37;;;17.43;;
20076;SDS011;12348;42.710;23.378;2022-10-12T01:36:47;34.33;;;16.37;;
20076;SDS011;12348;42.710;23.378;2022-10-12T01:39:20;34.00;;;17.37;;
20076;SDS011;12348;42.710;23.378;2022-10-12T01:41:51;32.93;;;16.53;;
20076;SDS011;12348;42.710;23.378;2022-10-12T01:44:21;31.97;;;16.27;;
20076;SDS011;12348;42.710;23.378;2022-10-12T01:46:50;37.83;;;17.87;;
20076;SDS011;12348;42.710;23.378;2022-10-12T01:49:18;32.03;;;16.23;;
20076;SDS011;12348;42.710;23.378;2022-10-12T01:51:59;33.10;;;17.00;;
20076;SDS011;12348;42.710;23.378;2022-10-12T01:54:52;33.73;;;17.37;;
20076;SDS011;12348;42.710;23.378;2022-10-12T01:57:30;29.60;;;16.60;;
20076;SDS011;12348;42.710;23.378;2022-10-12T02:00:06;34.07;;;17.03;;
20076;SDS011;12348;42.710;23.378;2022-10-12T02:02:37;32.93;;;16.60;;
20076;SDS011;12348;42.710;23.378;2022-10-12T02:05:13;31.80;;;16.93;;
20076;SDS011;12348;42.710;23.378;2022-10-12T02:07:48;35.87;;;16.73;;
20076;SDS011;12348;42.710;23.378;2022-10-12T02:10:20;35.47;;;17.00;;
20076;SDS011;12348;42.710;23.378;2022-10-12T02:12:51;26.73;;;15.23;;
20076;SDS011;12348;42.710;23.378;2022-10-12T02:15:19;30.40;;;15.80;;
20076;SDS011;12348;42.710;23.378;2022-10-12T02:17:50;34.27;;;16.53;;
20076;SDS011;12348;42.710;23.378;2022-10-12T02:20:19;30.33;;;16.97;;
20076;SDS011;12348;42.710;23.378;2022-10-12T02:22:48;34.10;;;15.93;;
20076;SDS011;12348;42.710;23.378;2022-10-12T02:25:18;27.87;;;15.57;;
20076;SDS011;12348;42.710;23.378;2022-10-12T02:27:46;29.87;;;16.20;;
20076;SDS011;12348;42.710;23.378;2022-10-12T02:30:17;38.07;;;17.10;;
20076;SDS011;12348;42.710;23.378;2022-10-12T02:32:46;32.17;;;16.67;;
20076;SDS011;12348;42.710;23.378;2022-10-12T02:35:20;28.77;;;15.23;;
20076;SDS011;12348;42.710;23.378;2022-10-12T02:37:51;29.80;;;15.33;;
20076;SDS011;12348;42.710;23.378;2022-10-12T02:40:22;31.87;;;16.40;;
20076;SDS011;12348;42.710;23.378;2022-10-12T02:42:56;28.00;;;15.43;;
20076;SDS011;12348;42.710;23.378;2022-10-12T02:45:27;37.27;;;17.17;;
20076;SDS011;12348;42.710;23.378;2022-10-12T02:47:56;29.37;;;15.73;;
20076;SDS011;12348;42.710;23.378;2022-10-12T02:50:25;33.27;;;16.70;;
20076;SDS011;12348;42.710;23.378;2022-10-12T02:52:53;30.93;;;15.40;;
20076;SDS011;12348;42.710;23.378;2022-10-12T02:55:20;31.67;;;16.10;;
20076;SDS011;12348;42.710;23.378;2022-10-12T02:57:46;31.13;;;15.70;;
20076;SDS011;12348;42.710;23.378;2022-10-12T03:00:14;31.57;;;16.60;;
20076;SDS011;12348;42.710;23.378;2022-10-12T03:02:43;31.83;;;15.87;;
20076;SDS011;12348;42.710;23.378;2022-10-12T03:05:11;31.80;;;15.77;;
20076;SDS011;12348;42.710;23.378;2022-10-12T03:07:37;32.27;;;16.50;;
20076;SDS011;12348;42.710;23.378;2022-10-12T03:10:04;32.40;;;15.93;;
20076;SDS011;12348;42.710;23.378;2022-10-12T03:12:32;33.57;;;17.00;;
20076;SDS011;12348;42.710;23.378;2022-10-12T03:14:59;28.20;;;15.33;;
20076;SDS011;12348;42.710;23.378;2022-10-12T03:17:25;26.97;;;13.20;;
20076;SDS011;12348;42.710;23.378;2022-10-12T03:19:52;27.53;;;15.23;;
20076;SDS011;12348;42.710;23.378;2022-10-12T03:22:20;27.23;;;14.10;;
20076;SDS011;12348;42.710;23.378;2022-10-12T03:24:47;28.50;;;14.97;;
20076;SDS011;12348;42.710;23.378;2022-10-12T03:27:13;30.73;;;15.37;;
20076;SDS011;12348;42.710;23.378;2022-10-12T03:29:40;30.50;;;15.77;;
20076;SDS011;12348;42.710;23.378;2022-10-12T03:32:07;25.83;;;14.83;;
20076;SDS011;12348;42.710;23.378;2022-10-12T03:34:33;29.50;;;14.13;;
20076;SDS011;12348;42.710;23.378;2022-10-12T03:37:00;33.93;;;14.30;;
20076;SDS011;12348;42.710;23.378;2022-10-12T03:39:28;30.70;;;15.17;;
20076;SDS011;12348;42.710;23.378;2022-10-12T03:41:55;23.30;;;13.47;;
20076;SDS011;12348;42.710;23.378;2022-10-12T03:44:21;30.90;;;15.47;;
20076;SDS011;12348;42.710;23.378;2022-10-12T03:46:48;30.53;;;14.00;;
20076;SDS011;12348;42.710;23.378;2022-10-12T03:49:15;27.13;;;14.93;;
20076;SDS011;12348;42.710;23.378;2022-10-12T03:51:41;26.27;;;14.27;;
20076;SDS011;12348;42.710;23.378;2022-10-12T03:54:08;26.70;;;13.77;;
20076;SDS011;12348;42.710;23.378;2022-10-12T03:56:36;26.50;;;14.63;;
20076;SDS011;12348;42.710;23.378;2022-10-12T03:59:03;25.83;;;15.40;;
20076;SDS011;12348;42.710;23.378;2022-10-12T04:01:30;27.13;;;15.23;;
20076;SDS011;12348;42.710;23.378;2022-10-12T04:03:57;30.93;;;14.97;;
20076;SDS011;12348;42.710;23.378;2022-10-12T04:06:23;53.23;;;24.87;;
20076;SDS011;12348;42.710;23.378;2022-10-12T04:08:50;25.87;;;14.33;;
20076;SDS011;12348;42.710;23.378;2022-10-12T04:11:17;28.87;;;14.97;;
20076;SDS011;12348;42.710;23.378;2022-10-12T04:13:46;28.13;;;14.40;;
20076;SDS011;12348;42.710;23.378;2022-10-12T04:16:13;26.23;;;13.63;;
20076;SDS011;12348;42.710;23.378;2022-10-12T04:18:39;23.23;;;13.67;;
20076;SDS011;12348;42.710;23.378;2022-10-12T04:21:08;22.60;;;13.07;;
20076;SDS011;12348;42.710;23.378;2022-10-12T04:23:37;27.27;;;14.03;;
20076;SDS011;12348;42.710;23.378;2022-10-12T04:26:04;24.97;;;14.63;;
20076;SDS011;12348;42.710;23.378;2022-10-12T04:28:31;33.70;;;13.87;;
20076;SDS011;12348;42.710;23.378;2022-10-12T04:30:59;27.67;;;14.07;;
20076;SDS011;12348;42.710;23.378;2022-10-12T04:33:27;29.50;;;14.63;;
20076;SDS011;12348;42.710;23.378;2022-10-12T04:35:53;26.60;;;15.10;;
20076;SDS011;12348;42.710;23.378;2022-10-12T04:38:20;27.07;;;15.00;;
20076;SDS011;12348;42.710;23.378;2022-10-12T04:40:47;29.07;;;16.77;;
20076;SDS011;12348;42.710;23.378;2022-10-12T04:43:14;26.10;;;15.57;;
20076;SDS011;12348;42.710;23.378;2022-10-12T04:45:42;32.80;;;18.60;;
20076;SDS011;12348;42.710;23.378;2022-10-12T04:48:10;39.73;;;19.37;;
20076;SDS011;12348;42.710;23.378;2022-10-12T04:50:37;46.77;;;22.73;;
20076;SDS011;12348;42.710;23.378;2022-10-12T04:53:04;43.40;;;20.40;;
20076;SDS011;12348;42.710;23.378;2022-10-12T04:55:31;31.73;;;17.27;;
20076;SDS011;12348;42.710;23.378;2022-10-12T04:57:58;39.67;;;21.17;;
20076;SDS011;12348;42.710;23.378;2022-10-12T05:00:25;32.43;;;18.40;;
20076;SDS011;12348;42.710;23.378;2022-10-12T05:02:52;34.90;;;18.50;;
20076;SDS011;12348;42.710;23.378;2022-10-12T05:05:20;31.10;;;16.73;;
20076;SDS011;12348;42.710;23.378;2022-10-12T05:07:47;34.33;;;17.43;;
20076;SDS011;12348;42.710;23.378;2022-10-12T05:10:14;37.33;;;17.87;;
20076;SDS011;12348;42.710;23.378;2022-10-12T05:12:40;37.77;;;17.63;;
20076;SDS011;12348;42.710;23.378;2022-10-12T05:15:08;36.37;;;18.27;;
20076;SDS011;12348;42.710;23.378;2022-10-12T05:17:35;30.50;;;16.37;;
20076;SDS011;12348;42.710;23.378;2022-10-12T05:20:02;26.70;;;15.87;;
20076;SDS011;12348;42.710;23.378;2022-10-12T05:22:32;35.20;;;18.30;;
20076;SDS011;12348;42.710;23.378;2022-10-12T05:24:58;26.10;;;15.07;;
20076;SDS011;12348;42.710;23.378;2022-10-12T05:27:25;31.70;;;16.37;;
20076;SDS011;12348;42.710;23.378;2022-10-12T05:29:52;28.70;;;14.77;;
20076;SDS011;12348;42.710;23.378;2022-10-12T05:32:18;25.10;;;13.67;;
20076;SDS011;12348;42.710;23.378;2022-10-12T05:34:46;28.13;;;15.40;;
20076;SDS011;12348;42.710;23.378;2022-10-12T05:37:12;32.23;;;18.63;;
20076;SDS011;12348;42.710;23.378;2022-10-12T05:39:40;30.10;;;16.90;;
20076;SDS011;12348;42.710;23.378;2022-10-12T05:42:07;35.33;;;17.43;;
20076;SDS011;12348;42.710;23.378;2022-10-12T05:44:34;33.20;;;16.57;;
20076;SDS011;12348;42.710;23.378;2022-10-12T05:47:01;33.07;;;19.10;;
20076;SDS011;12348;42.710;23.378;2022-10-12T05:49:27;35.73;;;19.20;;
20076;SDS011;12348;42.710;23.378;2022-10-12T05:51:55;43.67;;;18.53;;
20076;SDS011;12348;42.710;23.378;2022-10-12T05:54:21;32.83;;;15.73;;
20076;SDS011;12348;42.710;23.378;2022-10-12T05:56:50;30.83;;;16.30;;
20076;SDS011;12348;42.710;23.378;2022-10-12T05:59:17;30.93;;;16.40;;
20076;SDS011;12348;42.710;23.378;2022-10-12T06:01:43;29.50;;;15.00;;
20076;SDS011;12348;42.710;23.378;2022-10-12T06:04:12;34.93;;;16.07;;
20076;SDS011;12348;42.710;23.378;2022-10-12T06:06:39;35.03;;;17.37;;
20076;SDS011;12348;42.710;23.378;2022-10-12T06:09:06;29.23;;;16.47;;
20076;SDS011;12348;42.710;23.378;2022-10-12T06:11:33;30.83;;;16.43;;
20076;SDS011;12348;42.710;23.378;2022-10-12T06:14:01;27.60;;;15.50;;
20076;SDS011;12348;42.710;23.378;2022-10-12T06:16:28;31.93;;;15.70;;
20076;SDS011;12348;42.710;23.378;2022-10-12T06:18:54;29.87;;;17.23;;
20076;SDS011;12348;42.710;23.378;2022-10-12T06:21:21;54.63;;;24.70;;
20076;SDS011;12348;42.710;23.378;2022-10-12T06:23:48;37.93;;;19.80;;
20076;SDS011;12348;42.710;23.378;2022-10-12T06:26:15;35.77;;;17.23;;
20076;SDS011;12348;42.710;23.378;2022-10-12T06:28:41;30.77;;;16.67;;
20076;SDS011;12348;42.710;23.378;2022-10-12T06:31:09;30.33;;;15.73;;
20076;SDS011;12348;42.710;23.378;2022-10-12T06:33:36;28.07;;;14.23;;
20076;SDS011;12348;42.710;23.378;2022-10-12T06:36:03;29.00;;;15.23;;
20076;SDS011;12348;42.710;23.378;2022-10-12T06:38:30;29.70;;;15.63;;
20076;SDS011;12348;42.710;23.378;2022-10-12T06:40:57;25.50;;;14.30;;
20076;SDS011;12348;42.710;23.378;2022-10-12T06:43:23;30.00;;;14.83;;
20076;SDS011;12348;42.710;23.378;2022-10-12T06:45:50;32.43;;;15.37;;
20076;SDS011;12348;42.710;23.378;2022-10-12T06:48:19;25.50;;;15.00;;
20076;SDS011;12348;42.710;23.378;2022-10-12T06:50:45;32.70;;;15.70;;
20076;SDS011;12348;42.710;23.378;2022-10-12T06:53:14;26.80;;;14.43;;
20076;SDS011;12348;42.710;23.378;2022-10-12T06:55:41;28.17;;;14.20;;
20076;SDS011;12348;42.710;23.378;2022-10-12T06:58:07;31.33;;;15.60;;
20076;SDS011;12348;42.710;23.378;2022-10-12T07:00:34;24.03;;;12.73;;
20076;SDS011;12348;42.710;23.378;2022-10-12T07:03:01;27.07;;;15.23;;
20076;SDS011;12348;42.710;23.378;2022-10-12T07:05:30;27.23;;;14.57;;
20076;SDS011;12348;42.710;23.378;2022-10-12T07:07:57;27.57;;;12.97;;
20076;SDS011;12348;42.710;23.378;2022-10-12T07:10:23;28.93;;;15.37;;
20076;SDS011;12348;42.710;23.378;2022-10-12T07:12:50;23.20;;;13.43;;
20076;SDS011;12348;42.710;23.378;2022-10-12T07:15:17;25.03;;;13.70;;
20076;SDS011;12348;42.710;23.378;2022-10-12T07:17:44;26.43;;;15.20;;
20076;SDS011;12348;42.710;23.378;2022-10-12T07:20:11;23.37;;;13.20;;
20076;SDS011;12348;42.710;23.378;2022-10-12T07:22:39;26.27;;;14.17;;
20076;SDS011;12348;42.710;23.378;2022-10-12T07:25:06;22.77;;;14.20;;
20076;SDS011;12348;42.710;23.378;2022-10-12T07:27:33;25.60;;;13.13;;
20076;SDS011;12348;42.710;23.378;2022-10-12T07:30:00;28.50;;;13.97;;
20076;SDS011;12348;42.710;23.378;2022-10-12T07:32:27;20.47;;;12.30;;
20076;SDS011;12348;42.710;23.378;2022-10-12T07:34:53;28.77;;;13.80;;
20076;SDS011;12348;42.710;23.378;2022-10-12T07:37:20;20.27;;;11.57;;
20076;SDS011;12348;42.710;23.378;2022-10-12T07:39:48;26.93;;;13.13;;
20076;SDS011;12348;42.710;23.378;2022-10-12T07:42:21;27.13;;;13.30;;
20076;SDS011;12348;42.710;23.378;2022-10-12T07:44:47;26.07;;;12.67;;
20076;SDS011;12348;42.710;23.378;2022-10-12T07:47:14;27.90;;;13.37;;
20076;SDS011;12348;42.710;23.378;2022-10-12T07:49:41;23.77;;;13.03;;
20076;SDS011;12348;42.710;23.378;2022-10-12T07:52:08;25.07;;;13.27;;
20076;SDS011;12348;42.710;23.378;2022-10-12T07:54:35;26.73;;;13.23;;
20076;SDS011;12348;42.710;23.378;2022-10-12T07:57:03;26.83;;;14.57;;
20076;SDS011;12348;42.710;23.378;2022-10-12T07:59:30;27.83;;;13.57;;
20076;SDS011;12348;42.710;23.378;2022-10-12T08:01:56;29.03;;;13.27;;
20076;SDS011;12348;42.710;23.378;2022-10-12T08:04:23;24.00;;;13.50;;
20076;SDS011;12348;42.710;23.378;2022-10-12T08:06:50;26.40;;;11.83;;
20076;SDS011;12348;42.710;23.378;2022-10-12T08:09:16;21.17;;;11.63;;
20076;SDS011;12348;42.710;23.378;2022-10-12T08:11:43;23.20;;;12.00;;
20076;SDS011;12348;42.710;23.378;2022-10-12T08:14:12;20.13;;;11.37;;
20076;SDS011;12348;42.710;23.378;2022-10-12T08:16:40;27.20;;;13.60;;
20076;SDS011;12348;42.710;23.378;2022-10-12T08:19:07;28.37;;;11.87;;
20076;SDS011;12348;42.710;23.378;2022-10-12T08:21:34;21.00;;;13.30;;
20076;SDS011;12348;42.710;23.378;2022-10-12T08:24:01;20.50;;;12.07;;
20076;SDS011;12348;42.710;23.378;2022-10-12T08:26:28;23.90;;;12.03;;
20076;SDS011;12348;42.710;23.378;2022-10-12T08:28:55;25.67;;;10.47;;
20076;SDS011;12348;42.710;23.378;2022-10-12T08:31:23;19.60;;;10.20;;
20076;SDS011;12348;42.710;23.378;2022-10-12T08:33:50;19.50;;;11.27;;
20076;SDS011;12348;42.710;23.378;2022-10-12T08:36:17;19.20;;;10.43;;
20076;SDS011;12348;42.710;23.378;2022-10-12T08:38:43;23.23;;;11.93;;
20076;SDS011;12348;42.710;23.378;2022-10-12T08:41:27;18.70;;;11.30;;
20076;SDS011;12348;42.710;23.378;2022-10-12T08:47:12;18.90;;;10.63;;
20076;SDS011;12348;42.710;23.378;2022-10-12T08:49:43;16.90;;;10.03;;
20076;SDS011;12348;42.710;23.378;2022-10-12T08:52:20;16.30;;;10.37;;
20076;SDS011;12348;42.710;23.378;2022-10-12T08:54:54;22.77;;;12.43;;
20076;SDS011;12348;42.710;23.378;2022-10-12T08:57:24;20.03;;;11.83;;
20076;SDS011;12348;42.710;23.378;2022-10-12T08:59:51;16.73;;;9.73;;
20076;SDS011;12348;42.710;23.378;2022-10-12T09:02:29;20.33;;;10.87;;
20076;SDS011;12348;42.710;23.378;2022-10-12T09:05:05;17.70;;;9.07;;
20076;SDS011;12348;42.710;23.378;2022-10-12T09:07:36;16.63;;;10.33;;
20076;SDS011;12348;42.710;23.378;2022-10-12T09:10:09;17.83;;;9.33;;
20076;SDS011;12348;42.710;23.378;2022-10-12T09:12:51;17.33;;;9.63;;
20076;SDS011;12348;42.710;23.378;2022-10-12T09:15:25;21.10;;;10.37;;
20076;SDS011;12348;42.710;23.378;2022-10-12T09:17:58;22.80;;;12.10;;
20076;SDS011;12348;42.710;23.378;2022-10-12T09:20:31;22.40;;;10.73;;
20076;SDS011;12348;42.710;23.378;2022-10-12T09:23:11;17.87;;;9.80;;
20076;SDS011;12348;42.710;23.378;2022-10-12T09:25:49;17.87;;;10.83;;
20076;SDS011;12348;42.710;23.378;2022-10-12T09:28:17;21.03;;;12.30;;
20076;SDS011;12348;42.710;23.378;2022-10-12T09:30:52;18.33;;;10.63;;
20076;SDS011;12348;42.710;23.378;2022-10-12T09:33:33;20.37;;;11.27;;
20076;SDS011;12348;42.710;23.378;2022-10-12T09:36:06;23.80;;;11.80;;
20076;SDS011;12348;42.710;23.378;2022-10-12T09:38:37;21.80;;;11.67;;
20076;SDS011;12348;42.710;23.378;2022-10-12T09:41:04;22.07;;;12.23;;
20076;SDS011;12348;42.710;23.378;2022-10-12T09:43:31;18.23;;;11.20;;
20076;SDS011;12348;42.710;23.378;2022-10-12T09:45:58;22.40;;;11.93;;
20076;SDS011;12348;42.710;23.378;2022-10-12T09:48:32;13.90;;;8.30;;
20076;SDS011;12348;42.710;23.378;2022-10-12T09:50:59;19.80;;;9.60;;
20076;SDS011;12348;42.710;23.378;2022-10-12T09:53:30;21.07;;;9.97;;
20076;SDS011;12348;42.710;23.378;2022-10-12T09:56:00;15.60;;;9.50;;
20076;SDS011;12348;42.710;23.378;2022-10-12T09:58:33;20.00;;;10.27;;
20076;SDS011;12348;42.710;23.378;2022-10-12T10:04:05;13.47;;;9.33;;
20076;SDS011;12348;42.710;23.378;2022-10-12T10:06:34;20.43;;;11.30;;
20076;SDS011;12348;42.710;23.378;2022-10-12T10:09:02;20.47;;;11.07;;
20076;SDS011;12348;42.710;23.378;2022-10-12T10:11:29;16.43;;;9.07;;
20076;SDS011;12348;42.710;23.378;2022-10-12T10:13:56;19.27;;;10.27;;
20076;SDS011;12348;42.710;23.378;2022-10-12T10:16:25;17.40;;;9.40;;
20076;SDS011;12348;42.710;23.378;2022-10-12T10:18:58;15.37;;;8.87;;
20076;SDS011;12348;42.710;23.378;2022-10-12T10:21:28;14.53;;;9.17;;
20076;SDS011;12348;42.710;23.378;2022-10-12T10:23:57;15.30;;;8.67;;
20076;SDS011;12348;42.710;23.378;2022-10-12T10:26:27;13.03;;;7.40;;
20076;SDS011;12348;42.710;23.378;2022-10-12T10:28:57;12.33;;;7.87;;
20076;SDS011;12348;42.710;23.378;2022-10-12T10:31:41;14.97;;;8.90;;
20076;SDS011;12348;42.710;23.378;2022-10-12T10:37:33;15.93;;;8.63;;
20076;SDS011;12348;42.710;23.378;2022-10-12T10:40:00;12.33;;;7.37;;
20076;SDS011;12348;42.710;23.378;2022-10-12T10:42:28;12.00;;;7.87;;
20076;SDS011;12348;42.710;23.378;2022-10-12T10:44:58;17.17;;;9.90;;
20076;SDS011;12348;42.710;23.378;2022-10-12T10:47:26;15.93;;;9.27;;
20076;SDS011;12348;42.710;23.378;2022-10-12T10:49:56;15.27;;;8.20;;
20076;SDS011;12348;42.710;23.378;2022-10-12T10:52:25;15.60;;;8.97;;
20076;SDS011;12348;42.710;23.378;2022-10-12T10:57:56;14.20;;;7.30;;
20076;SDS011;12348;42.710;23.378;2022-10-12T11:00:28;14.53;;;9.33;;
20076;SDS011;12348;42.710;23.378;2022-10-12T11:03:00;16.10;;;7.40;;
20076;SDS011;12348;42.710;23.378;2022-10-12T11:05:32;13.07;;;7.93;;
20076;SDS011;12348;42.710;23.378;2022-10-12T11:08:08;18.07;;;9.70;;
20076;SDS011;12348;42.710;23.378;2022-10-12T11:10:43;15.17;;;8.40;;
20076;SDS011;12348;42.710;23.378;2022-10-12T11:13:16;15.80;;;8.03;;
20076;SDS011;12348;42.710;23.378;2022-10-12T11:15:46;14.53;;;8.03;;
20076;SDS011;12348;42.710;23.378;2022-10-12T11:18:16;13.93;;;8.40;;
20076;SDS011;12348;42.710;23.378;2022-10-12T11:20:50;15.90;;;9.00;;
20076;SDS011;12348;42.710;23.378;2022-10-12T11:23:23;13.17;;;7.23;;
20076;SDS011;12348;42.710;23.378;2022-10-12T11:25:59;14.50;;;8.37;;
20076;SDS011;12348;42.710;23.378;2022-10-12T11:28:33;13.13;;;8.03;;
20076;SDS011;12348;42.710;23.378;2022-10-12T11:31:01;12.03;;;8.03;;
20076;SDS011;12348;42.710;23.378;2022-10-12T11:33:32;13.73;;;7.63;;
20076;SDS011;12348;42.710;23.378;2022-10-12T11:36:03;12.40;;;7.23;;
20076;SDS011;12348;42.710;23.378;2022-10-12T11:38:34;12.53;;;7.73;;
20076;SDS011;12348;42.710;23.378;2022-10-12T11:41:10;12.37;;;8.13;;
20076;SDS011;12348;42.710;23.378;2022-10-12T11:43:51;12.30;;;7.83;;
20076;SDS011;12348;42.710;23.378;2022-10-12T11:46:26;12.97;;;7.60;;
20076;SDS011;12348;42.710;23.378;2022-10-12T11:49:00;17.40;;;9.43;;
20076;SDS011;12348;42.710;23.378;2022-10-12T11:51:31;15.20;;;8.70;;
20076;SDS011;12348;42.710;23.378;2022-10-12T11:53:58;14.07;;;7.87;;
20076;SDS011;12348;42.710;23.378;2022-10-12T11:56:33;23.87;;;9.83;;
20076;SDS011;12348;42.710;23.378;2022-10-12T11:59:09;15.00;;;8.67;;
20076;SDS011;12348;42.710;23.378;2022-10-12T12:01:44;14.07;;;7.87;;
20076;SDS011;12348;42.710;23.378;2022-10-12T12:04:19;13.87;;;8.67;;
20076;SDS011;12348;42.710;23.378;2022-10-12T12:06:59;12.07;;;7.07;;
20076;SDS011;12348;42.710;23.378;2022-10-12T12:09:35;15.83;;;7.90;;
20076;SDS011;12348;42.710;23.378;2022-10-12T12:12:10;17.37;;;9.17;;
20076;SDS011;12348;42.710;23.378;2022-10-12T12:14:57;20.20;;;8.73;;
20076;SDS011;12348;42.710;23.378;2022-10-12T12:17:27;14.20;;;8.43;;
20076;SDS011;12348;42.710;23.378;2022-10-12T12:19:57;13.10;;;7.97;;
20076;SDS011;12348;42.710;23.378;2022-10-12T12:22:27;16.20;;;8.53;;
20076;SDS011;12348;42.710;23.378;2022-10-12T12:25:02;12.37;;;8.30;;
20076;SDS011;12348;42.710;23.378;2022-10-12T12:27:43;13.00;;;8.03;;
20076;SDS011;12348;42.710;23.378;2022-10-12T12:30:24;12.73;;;8.30;;
20076;SDS011;12348;42.710;23.378;2022-10-12T12:32:55;12.00;;;7.90;;
20076;SDS011;12348;42.710;23.378;2022-10-12T12:35:28;12.37;;;7.70;;
20076;SDS011;12348;42.710;23.378;2022-10-12T12:40:58;11.30;;;7.33;;
20076;SDS011;12348;42.710;23.378;2022-10-12T12:43:36;14.50;;;8.23;;
20076;SDS011;12348;42.710;23.378;2022-10-12T12:46:16;13.93;;;7.90;;
20076;SDS011;12348;42.710;23.378;2022-10-12T12:49:00;12.87;;;7.77;;
20076;SDS011;12348;42.710;23.378;2022-10-12T12:51:38;14.33;;;7.77;;
20076;SDS011;12348;42.710;23.378;2022-10-12T12:54:14;13.53;;;8.00;;
20076;SDS011;12348;42.710;23.378;2022-10-12T12:56:56;17.30;;;8.67;;
20076;SDS011;12348;42.710;23.378;2022-10-12T13:02:48;16.93;;;8.83;;
20076;SDS011;12348;42.710;23.378;2022-10-12T13:08:54;14.07;;;8.13;;
20076;SDS011;12348;42.710;23.378;2022-10-12T13:11:56;14.97;;;8.27;;
20076;SDS011;12348;42.710;23.378;2022-10-12T13:17:30;12.20;;;7.57;;
20076;SDS011;12348;42.710;23.378;2022-10-12T13:20:10;17.50;;;9.47;;
20076;SDS011;12348;42.710;23.378;2022-10-12T13:22:44;15.60;;;9.13;;
20076;SDS011;12348;42.710;23.378;2022-10-12T13:25:17;16.63;;;9.80;;
20076;SDS011;12348;42.710;23.378;2022-10-12T13:27:51;18.90;;;9.60;;
20076;SDS011;12348;42.710;23.378;2022-10-12T13:30:21;14.50;;;9.17;;
20076;SDS011;12348;42.710;23.378;2022-10-12T13:32:56;19.57;;;10.37;;
20076;SDS011;12348;42.710;23.378;2022-10-12T13:35:29;21.37;;;11.63;;
20076;SDS011;12348;42.710;23.378;2022-10-12T13:38:00;18.13;;;10.87;;
20076;SDS011;12348;42.710;23.378;2022-10-12T13:40:30;17.83;;;9.63;;
20076;SDS011;12348;42.710;23.378;2022-10-12T13:45:44;17.87;;;9.97;;
20076;SDS011;12348;42.710;23.378;2022-10-12T13:48:15;17.90;;;9.63;;
20076;SDS011;12348;42.710;23.378;2022-10-12T13:50:51;17.37;;;9.27;;
20076;SDS011;12348;42.710;23.378;2022-10-12T13:53:19;14.33;;;9.33;;
20076;SDS011;12348;42.710;23.378;2022-10-12T13:55:50;20.10;;;9.80;;
20076;SDS011;12348;42.710;23.378;2022-10-12T13:58:24;14.87;;;8.67;;
20076;SDS011;12348;42.710;23.378;2022-10-12T14:00:53;13.67;;;8.50;;
20076;SDS011;12348;42.710;23.378;2022-10-12T14:03:24;17.33;;;8.87;;
20076;SDS011;12348;42.710;23.378;2022-10-12T14:05:52;15.63;;;9.50;;
20076;SDS011;12348;42.710;23.378;2022-10-12T14:08:20;15.43;;;8.97;;
20076;SDS011;12348;42.710;23.378;2022-10-12T14:10:50;15.23;;;8.47;;
20076;SDS011;12348;42.710;23.378;2022-10-12T14:13:19;20.43;;;9.80;;
20076;SDS011;12348;42.710;23.378;2022-10-12T14:15:50;15.57;;;9.27;;
20076;SDS011;12348;42.710;23.378;2022-10-12T14:18:35;20.00;;;10.07;;
20076;SDS011;12348;42.710;23.378;2022-10-12T14:21:05;16.03;;;8.90;;
20076;SDS011;12348;42.710;23.378;2022-10-12T14:23:40;18.23;;;10.07;;
20076;SDS011;12348;42.710;23.378;2022-10-12T14:26:20;17.90;;;10.57;;
20076;SDS011;12348;42.710;23.378;2022-10-12T14:28:56;21.40;;;11.53;;
20076;SDS011;12348;42.710;23.378;2022-10-12T14:34:32;21.47;;;11.70;;
20076;SDS011;12348;42.710;23.378;2022-10-12T14:37:02;15.43;;;8.50;;
20076;SDS011;12348;42.710;23.378;2022-10-12T14:39:31;18.77;;;10.53;;
20076;SDS011;12348;42.710;23.378;2022-10-12T14:41:59;17.97;;;10.23;;
20076;SDS011;12348;42.710;23.378;2022-10-12T14:44:27;20.70;;;10.90;;
20076;SDS011;12348;42.710;23.378;2022-10-12T14:46:54;17.60;;;10.17;;
20076;SDS011;12348;42.710;23.378;2022-10-12T14:49:31;28.40;;;12.53;;
20076;SDS011;12348;42.710;23.378;2022-10-12T14:52:03;23.43;;;10.87;;
20076;SDS011;12348;42.710;23.378;2022-10-12T14:54:30;17.67;;;10.53;;
20076;SDS011;12348;42.710;23.378;2022-10-12T14:56:57;21.57;;;9.23;;
20076;SDS011;12348;42.710;23.378;2022-10-12T14:59:36;19.23;;;10.27;;
20076;SDS011;12348;42.710;23.378;2022-10-12T15:02:07;19.50;;;10.27;;